Terminal Aerodrome Forecast
Issued by NWS Wilmington, NC

Home | Current Version | Previous Version | Text Only | Print | Product List | Glossary On
Versions: 1 2 3 4 5 6 7 8 9 10 11 12 13 14 15 16 17 18 19 20
495
FTUS42 KILM 060520
TAFFLO
TAF
KFLO 060520Z 0606/0706 06007KT 5SM -RA SCT009 BKN015
      TEMPO 0606/0608 BKN009
     FM060800 06010KT 4SM RA BR OVC008
     FM061400 07007KT 4SM -RA OVC004
     FM062200 30006KT 5SM -DZ BR BKN007
     FM070300 34005KT P6SM SCT015=

USA.gov is the U.S. government's official web portal to all federal, state and local government web resources and services.